sensor_id;sensor_type;location;lat;lon;timestamp;P1;durP1;ratioP1;P2;durP2;ratioP2
74044;SDS011;62389;51.412;5.436;2023-07-02T00:01:02;10.30;;;4.22;;
74044;SDS011;62389;51.412;5.436;2023-07-02T00:03:28;12.02;;;4.85;;
74044;SDS011;62389;51.412;5.436;2023-07-02T00:05:54;11.13;;;4.82;;
74044;SDS011;62389;51.412;5.436;2023-07-02T00:08:19;10.98;;;5.00;;
74044;SDS011;62389;51.412;5.436;2023-07-02T00:10:46;10.43;;;4.35;;
74044;SDS011;62389;51.412;5.436;2023-07-02T00:13:12;9.82;;;4.88;;
74044;SDS011;62389;51.412;5.436;2023-07-02T00:15:37;17.30;;;6.38;;
74044;SDS011;62389;51.412;5.436;2023-07-02T00:18:02;12.65;;;5.53;;
74044;SDS011;62389;51.412;5.436;2023-07-02T00:20:28;13.02;;;5.78;;
74044;SDS011;62389;51.412;5.436;2023-07-02T00:22:55;12.63;;;5.63;;
74044;SDS011;62389;51.412;5.436;2023-07-02T00:25:21;15.05;;;5.40;;
74044;SDS011;62389;51.412;5.436;2023-07-02T00:27:46;13.82;;;5.63;;
74044;SDS011;62389;51.412;5.436;2023-07-02T00:30:12;16.33;;;5.90;;
74044;SDS011;62389;51.412;5.436;2023-07-02T00:32:38;16.25;;;5.88;;
74044;SDS011;62389;51.412;5.436;2023-07-02T00:35:03;16.75;;;6.00;;
74044;SDS011;62389;51.412;5.436;2023-07-02T00:37:29;16.67;;;6.43;;
74044;SDS011;62389;51.412;5.436;2023-07-02T00:39:54;13.68;;;6.10;;
74044;SDS011;62389;51.412;5.436;2023-07-02T00:42:19;15.77;;;5.85;;
74044;SDS011;62389;51.412;5.436;2023-07-02T00:44:45;12.20;;;6.25;;
74044;SDS011;62389;51.412;5.436;2023-07-02T00:47:11;14.90;;;6.43;;
74044;SDS011;62389;51.412;5.436;2023-07-02T00:49:37;13.68;;;6.57;;
74044;SDS011;62389;51.412;5.436;2023-07-02T00:52:02;17.42;;;6.13;;
74044;SDS011;62389;51.412;5.436;2023-07-02T00:54:28;15.52;;;7.20;;
74044;SDS011;62389;51.412;5.436;2023-07-02T00:56:54;15.55;;;6.75;;
74044;SDS011;62389;51.412;5.436;2023-07-02T00:59:20;17.63;;;6.82;;
74044;SDS011;62389;51.412;5.436;2023-07-02T01:01:45;15.25;;;7.93;;
74044;SDS011;62389;51.412;5.436;2023-07-02T01:04:16;18.55;;;7.47;;
74044;SDS011;62389;51.412;5.436;2023-07-02T01:06:43;20.50;;;7.40;;
74044;SDS011;62389;51.412;5.436;2023-07-02T01:09:09;19.50;;;7.50;;
74044;SDS011;62389;51.412;5.436;2023-07-02T01:16:42;21.95;;;8.10;;
74044;SDS011;62389;51.412;5.436;2023-07-02T01:21:43;24.83;;;8.73;;
74044;SDS011;62389;51.412;5.436;2023-07-02T01:24:10;19.52;;;8.32;;
74044;SDS011;62389;51.412;5.436;2023-07-02T01:26:36;24.27;;;8.75;;
74044;SDS011;62389;51.412;5.436;2023-07-02T01:31:39;24.02;;;8.30;;
74044;SDS011;62389;51.412;5.436;2023-07-02T01:34:04;22.42;;;8.60;;
74044;SDS011;62389;51.412;5.436;2023-07-02T01:36:32;22.60;;;8.85;;
74044;SDS011;62389;51.412;5.436;2023-07-02T01:38:58;22.08;;;8.70;;
74044;SDS011;62389;51.412;5.436;2023-07-02T01:41:24;20.35;;;9.05;;
74044;SDS011;62389;51.412;5.436;2023-07-02T01:43:49;22.35;;;8.65;;
74044;SDS011;62389;51.412;5.436;2023-07-02T01:46:14;23.15;;;9.40;;
74044;SDS011;62389;51.412;5.436;2023-07-02T01:48:40;19.55;;;8.75;;
74044;SDS011;62389;51.412;5.436;2023-07-02T01:51:05;21.20;;;8.30;;
74044;SDS011;62389;51.412;5.436;2023-07-02T01:53:30;20.77;;;9.38;;
74044;SDS011;62389;51.412;5.436;2023-07-02T01:55:56;21.70;;;9.00;;
74044;SDS011;62389;51.412;5.436;2023-07-02T01:58:21;19.30;;;8.43;;
74044;SDS011;62389;51.412;5.436;2023-07-02T02:00:47;19.98;;;9.57;;
74044;SDS011;62389;51.412;5.436;2023-07-02T02:03:12;19.77;;;8.63;;
74044;SDS011;62389;51.412;5.436;2023-07-02T02:05:38;23.00;;;9.40;;
74044;SDS011;62389;51.412;5.436;2023-07-02T02:08:03;20.67;;;9.52;;
74044;SDS011;62389;51.412;5.436;2023-07-02T02:10:29;23.75;;;11.00;;
74044;SDS011;62389;51.412;5.436;2023-07-02T02:12:54;21.00;;;9.45;;
74044;SDS011;62389;51.412;5.436;2023-07-02T02:15:19;20.77;;;9.73;;
74044;SDS011;62389;51.412;5.436;2023-07-02T02:17:45;17.95;;;9.07;;
74044;SDS011;62389;51.412;5.436;2023-07-02T02:20:11;23.20;;;11.02;;
74044;SDS011;62389;51.412;5.436;2023-07-02T02:22:36;19.75;;;9.60;;
74044;SDS011;62389;51.412;5.436;2023-07-02T02:25:02;26.90;;;9.95;;
74044;SDS011;62389;51.412;5.436;2023-07-02T02:27:28;27.20;;;10.05;;
74044;SDS011;62389;51.412;5.436;2023-07-02T02:29:54;24.42;;;10.52;;
74044;SDS011;62389;51.412;5.436;2023-07-02T02:32:19;26.67;;;10.07;;
74044;SDS011;62389;51.412;5.436;2023-07-02T02:34:46;28.15;;;9.48;;
74044;SDS011;62389;51.412;5.436;2023-07-02T02:37:12;29.65;;;11.20;;
74044;SDS011;62389;51.412;5.436;2023-07-02T02:39:37;22.80;;;9.73;;
74044;SDS011;62389;51.412;5.436;2023-07-02T02:42:02;24.52;;;10.18;;
74044;SDS011;62389;51.412;5.436;2023-07-02T02:44:28;26.25;;;10.32;;
74044;SDS011;62389;51.412;5.436;2023-07-02T02:46:54;26.52;;;9.77;;
74044;SDS011;62389;51.412;5.436;2023-07-02T02:49:20;24.67;;;9.75;;
74044;SDS011;62389;51.412;5.436;2023-07-02T02:51:45;22.30;;;10.23;;
74044;SDS011;62389;51.412;5.436;2023-07-02T02:54:10;31.30;;;10.40;;
74044;SDS011;62389;51.412;5.436;2023-07-02T02:56:36;24.85;;;10.82;;
74044;SDS011;62389;51.412;5.436;2023-07-02T02:59:01;27.60;;;12.23;;
74044;SDS011;62389;51.412;5.436;2023-07-02T03:01:27;24.27;;;10.55;;
74044;SDS011;62389;51.412;5.436;2023-07-02T03:03:55;25.38;;;9.93;;
74044;SDS011;62389;51.412;5.436;2023-07-02T03:06:22;25.42;;;10.63;;
74044;SDS011;62389;51.412;5.436;2023-07-02T03:08:48;24.33;;;10.60;;
74044;SDS011;62389;51.412;5.436;2023-07-02T03:11:13;23.77;;;10.82;;
74044;SDS011;62389;51.412;5.436;2023-07-02T03:13:39;26.77;;;10.70;;
74044;SDS011;62389;51.412;5.436;2023-07-02T03:16:04;22.25;;;10.05;;
74044;SDS011;62389;51.412;5.436;2023-07-02T03:18:30;30.10;;;10.73;;
74044;SDS011;62389;51.412;5.436;2023-07-02T03:20:55;24.48;;;10.23;;
74044;SDS011;62389;51.412;5.436;2023-07-02T03:23:21;24.77;;;10.73;;
74044;SDS011;62389;51.412;5.436;2023-07-02T03:25:46;24.15;;;10.10;;
74044;SDS011;62389;51.412;5.436;2023-07-02T03:28:11;22.05;;;10.15;;
74044;SDS011;62389;51.412;5.436;2023-07-02T03:30:37;20.48;;;10.30;;
74044;SDS011;62389;51.412;5.436;2023-07-02T03:33:03;24.25;;;10.23;;
74044;SDS011;62389;51.412;5.436;2023-07-02T03:35:28;28.83;;;10.85;;
74044;SDS011;62389;51.412;5.436;2023-07-02T03:37:54;29.65;;;12.32;;
74044;SDS011;62389;51.412;5.436;2023-07-02T03:40:19;26.73;;;10.80;;
74044;SDS011;62389;51.412;5.436;2023-07-02T03:42:44;25.65;;;10.77;;
74044;SDS011;62389;51.412;5.436;2023-07-02T03:45:10;26.10;;;10.75;;
74044;SDS011;62389;51.412;5.436;2023-07-02T03:47:35;24.20;;;10.30;;
74044;SDS011;62389;51.412;5.436;2023-07-02T03:50:01;25.50;;;10.13;;
74044;SDS011;62389;51.412;5.436;2023-07-02T03:52:26;24.65;;;10.18;;
74044;SDS011;62389;51.412;5.436;2023-07-02T03:54:52;23.60;;;9.57;;
74044;SDS011;62389;51.412;5.436;2023-07-02T03:57:17;20.92;;;9.57;;
74044;SDS011;62389;51.412;5.436;2023-07-02T03:59:43;21.90;;;9.85;;
74044;SDS011;62389;51.412;5.436;2023-07-02T04:02:08;23.15;;;10.05;;
74044;SDS011;62389;51.412;5.436;2023-07-02T04:04:33;27.17;;;10.20;;
74044;SDS011;62389;51.412;5.436;2023-07-02T04:06:59;25.15;;;10.60;;
74044;SDS011;62389;51.412;5.436;2023-07-02T04:09:24;24.85;;;10.73;;
74044;SDS011;62389;51.412;5.436;2023-07-02T04:11:49;21.45;;;9.48;;
74044;SDS011;62389;51.412;5.436;2023-07-02T04:14:15;22.25;;;10.30;;
74044;SDS011;62389;51.412;5.436;2023-07-02T04:16:40;22.50;;;10.60;;
74044;SDS011;62389;51.412;5.436;2023-07-02T04:19:08;26.15;;;10.85;;
74044;SDS011;62389;51.412;5.436;2023-07-02T04:21:34;30.25;;;9.75;;
74044;SDS011;62389;51.412;5.436;2023-07-02T04:24:00;22.75;;;10.05;;
74044;SDS011;62389;51.412;5.436;2023-07-02T04:26:25;27.95;;;10.88;;
74044;SDS011;62389;51.412;5.436;2023-07-02T04:28:51;25.95;;;10.43;;
74044;SDS011;62389;51.412;5.436;2023-07-02T04:31:17;20.80;;;9.85;;
74044;SDS011;62389;51.412;5.436;2023-07-02T04:33:44;25.85;;;11.25;;
74044;SDS011;62389;51.412;5.436;2023-07-02T04:36:09;25.70;;;10.75;;
74044;SDS011;62389;51.412;5.436;2023-07-02T04:38:34;28.45;;;11.75;;
74044;SDS011;62389;51.412;5.436;2023-07-02T04:41:00;24.52;;;9.98;;
74044;SDS011;62389;51.412;5.436;2023-07-02T04:43:30;27.48;;;10.32;;
74044;SDS011;62389;51.412;5.436;2023-07-02T04:45:56;23.13;;;10.65;;
74044;SDS011;62389;51.412;5.436;2023-07-02T04:48:22;34.65;;;12.20;;
74044;SDS011;62389;51.412;5.436;2023-07-02T04:50:47;25.85;;;9.68;;
74044;SDS011;62389;51.412;5.436;2023-07-02T04:53:12;23.30;;;8.95;;
74044;SDS011;62389;51.412;5.436;2023-07-02T04:55:38;27.02;;;9.73;;
74044;SDS011;62389;51.412;5.436;2023-07-02T04:58:03;27.90;;;10.00;;
74044;SDS011;62389;51.412;5.436;2023-07-02T05:00:28;22.30;;;8.98;;
74044;SDS011;62389;51.412;5.436;2023-07-02T05:02:54;22.23;;;9.00;;
74044;SDS011;62389;51.412;5.436;2023-07-02T05:05:19;20.80;;;9.20;;
74044;SDS011;62389;51.412;5.436;2023-07-02T05:07:45;22.58;;;8.52;;
74044;SDS011;62389;51.412;5.436;2023-07-02T05:10:10;20.58;;;7.57;;
74044;SDS011;62389;51.412;5.436;2023-07-02T05:12:35;23.80;;;7.68;;
74044;SDS011;62389;51.412;5.436;2023-07-02T05:15:01;22.42;;;7.50;;
74044;SDS011;62389;51.412;5.436;2023-07-02T05:17:26;18.45;;;7.60;;
74044;SDS011;62389;51.412;5.436;2023-07-02T05:19:52;18.25;;;8.18;;
74044;SDS011;62389;51.412;5.436;2023-07-02T05:22:17;18.25;;;7.20;;
74044;SDS011;62389;51.412;5.436;2023-07-02T05:24:43;15.93;;;6.53;;
74044;SDS011;62389;51.412;5.436;2023-07-02T05:27:09;19.95;;;7.28;;
74044;SDS011;62389;51.412;5.436;2023-07-02T05:29:34;17.50;;;6.65;;
74044;SDS011;62389;51.412;5.436;2023-07-02T05:32:00;18.33;;;6.32;;
74044;SDS011;62389;51.412;5.436;2023-07-02T05:34:25;20.23;;;7.13;;
74044;SDS011;62389;51.412;5.436;2023-07-02T05:36:50;17.85;;;7.00;;
74044;SDS011;62389;51.412;5.436;2023-07-02T05:39:16;17.17;;;6.40;;
74044;SDS011;62389;51.412;5.436;2023-07-02T05:41:41;18.52;;;6.00;;
74044;SDS011;62389;51.412;5.436;2023-07-02T05:44:07;14.45;;;5.95;;
74044;SDS011;62389;51.412;5.436;2023-07-02T05:46:32;18.52;;;6.97;;
74044;SDS011;62389;51.412;5.436;2023-07-02T05:48:57;17.75;;;7.32;;
74044;SDS011;62389;51.412;5.436;2023-07-02T05:51:24;19.92;;;7.15;;
74044;SDS011;62389;51.412;5.436;2023-07-02T05:53:50;16.92;;;7.60;;
74044;SDS011;62389;51.412;5.436;2023-07-02T05:56:16;20.60;;;7.53;;
74044;SDS011;62389;51.412;5.436;2023-07-02T05:58:42;17.48;;;6.75;;
74044;SDS011;62389;51.412;5.436;2023-07-02T06:01:08;17.55;;;6.80;;
74044;SDS011;62389;51.412;5.436;2023-07-02T06:03:33;21.95;;;7.40;;
74044;SDS011;62389;51.412;5.436;2023-07-02T06:05:59;21.13;;;7.05;;
74044;SDS011;62389;51.412;5.436;2023-07-02T06:08:24;16.27;;;6.22;;
74044;SDS011;62389;51.412;5.436;2023-07-02T06:10:50;15.50;;;6.60;;
74044;SDS011;62389;51.412;5.436;2023-07-02T06:13:16;18.55;;;6.18;;
74044;SDS011;62389;51.412;5.436;2023-07-02T06:15:42;16.33;;;6.47;;
74044;SDS011;62389;51.412;5.436;2023-07-02T06:18:08;17.95;;;5.90;;
74044;SDS011;62389;51.412;5.436;2023-07-02T06:20:33;13.52;;;6.03;;
74044;SDS011;62389;51.412;5.436;2023-07-02T06:22:59;13.98;;;6.13;;
74044;SDS011;62389;51.412;5.436;2023-07-02T06:25:24;13.73;;;4.93;;
74044;SDS011;62389;51.412;5.436;2023-07-02T06:27:49;16.85;;;5.60;;
74044;SDS011;62389;51.412;5.436;2023-07-02T06:30:15;11.30;;;5.03;;
74044;SDS011;62389;51.412;5.436;2023-07-02T06:32:40;14.32;;;4.72;;
74044;SDS011;62389;51.412;5.436;2023-07-02T06:35:06;16.05;;;4.93;;
74044;SDS011;62389;51.412;5.436;2023-07-02T06:37:32;14.15;;;5.05;;
74044;SDS011;62389;51.412;5.436;2023-07-02T06:39:58;14.90;;;5.32;;
74044;SDS011;62389;51.412;5.436;2023-07-02T06:42:24;20.25;;;5.97;;
74044;SDS011;62389;51.412;5.436;2023-07-02T06:44:49;11.45;;;4.22;;
74044;SDS011;62389;51.412;5.436;2023-07-02T06:47:15;11.43;;;4.28;;
74044;SDS011;62389;51.412;5.436;2023-07-02T06:49:40;15.75;;;4.80;;
74044;SDS011;62389;51.412;5.436;2023-07-02T06:52:05;17.17;;;4.85;;
74044;SDS011;62389;51.412;5.436;2023-07-02T06:54:31;12.38;;;4.80;;
74044;SDS011;62389;51.412;5.436;2023-07-02T06:56:56;14.52;;;4.82;;
74044;SDS011;62389;51.412;5.436;2023-07-02T06:59:22;14.80;;;4.35;;
74044;SDS011;62389;51.412;5.436;2023-07-02T07:01:48;11.23;;;4.25;;
74044;SDS011;62389;51.412;5.436;2023-07-02T07:04:14;11.75;;;4.82;;
74044;SDS011;62389;51.412;5.436;2023-07-02T07:06:39;12.90;;;4.97;;
74044;SDS011;62389;51.412;5.436;2023-07-02T07:09:05;13.90;;;5.68;;
74044;SDS011;62389;51.412;5.436;2023-07-02T07:11:30;13.20;;;4.45;;
74044;SDS011;62389;51.412;5.436;2023-07-02T07:13:56;17.15;;;5.40;;
74044;SDS011;62389;51.412;5.436;2023-07-02T07:16:21;15.77;;;5.50;;
74044;SDS011;62389;51.412;5.436;2023-07-02T07:18:47;12.60;;;4.55;;
74044;SDS011;62389;51.412;5.436;2023-07-02T07:21:12;14.93;;;5.90;;
74044;SDS011;62389;51.412;5.436;2023-07-02T07:23:39;13.98;;;4.90;;
74044;SDS011;62389;51.412;5.436;2023-07-02T07:26:04;10.38;;;4.35;;
74044;SDS011;62389;51.412;5.436;2023-07-02T07:28:30;14.43;;;5.45;;
74044;SDS011;62389;51.412;5.436;2023-07-02T07:30:55;11.25;;;4.55;;
74044;SDS011;62389;51.412;5.436;2023-07-02T07:33:20;12.15;;;4.43;;
74044;SDS011;62389;51.412;5.436;2023-07-02T07:35:46;11.00;;;3.70;;
74044;SDS011;62389;51.412;5.436;2023-07-02T07:38:13;8.65;;;4.30;;
74044;SDS011;62389;51.412;5.436;2023-07-02T07:40:39;13.98;;;4.40;;
74044;SDS011;62389;51.412;5.436;2023-07-02T07:43:05;9.90;;;4.25;;
74044;SDS011;62389;51.412;5.436;2023-07-02T07:45:30;10.80;;;3.65;;
74044;SDS011;62389;51.412;5.436;2023-07-02T07:47:55;11.23;;;3.67;;
74044;SDS011;62389;51.412;5.436;2023-07-02T07:50:21;10.13;;;3.92;;
74044;SDS011;62389;51.412;5.436;2023-07-02T07:52:47;14.63;;;5.18;;
74044;SDS011;62389;51.412;5.436;2023-07-02T07:55:13;13.80;;;4.00;;
74044;SDS011;62389;51.412;5.436;2023-07-02T07:57:38;10.18;;;3.60;;
74044;SDS011;62389;51.412;5.436;2023-07-02T08:00:04;10.50;;;4.03;;
74044;SDS011;62389;51.412;5.436;2023-07-02T08:02:32;10.30;;;4.57;;
74044;SDS011;62389;51.412;5.436;2023-07-02T08:04:58;11.00;;;4.38;;
74044;SDS011;62389;51.412;5.436;2023-07-02T08:07:23;11.95;;;4.50;;
74044;SDS011;62389;51.412;5.436;2023-07-02T08:09:49;10.75;;;3.78;;
74044;SDS011;62389;51.412;5.436;2023-07-02T08:12:14;9.68;;;4.18;;
74044;SDS011;62389;51.412;5.436;2023-07-02T08:14:39;13.85;;;4.05;;
74044;SDS011;62389;51.412;5.436;2023-07-02T08:17:05;8.48;;;3.65;;
74044;SDS011;62389;51.412;5.436;2023-07-02T08:19:31;9.95;;;4.65;;
74044;SDS011;62389;51.412;5.436;2023-07-02T08:21:56;10.80;;;3.70;;
74044;SDS011;62389;51.412;5.436;2023-07-02T08:24:21;10.98;;;4.18;;
74044;SDS011;62389;51.412;5.436;2023-07-02T08:26:47;7.57;;;3.67;;
74044;SDS011;62389;51.412;5.436;2023-07-02T08:29:14;10.80;;;3.63;;
74044;SDS011;62389;51.412;5.436;2023-07-02T08:31:40;9.52;;;3.55;;
74044;SDS011;62389;51.412;5.436;2023-07-02T08:34:06;9.85;;;3.20;;
74044;SDS011;62389;51.412;5.436;2023-07-02T08:36:32;8.30;;;3.13;;
74044;SDS011;62389;51.412;5.436;2023-07-02T08:38:57;8.40;;;3.60;;
74044;SDS011;62389;51.412;5.436;2023-07-02T08:41:22;10.75;;;4.30;;
74044;SDS011;62389;51.412;5.436;2023-07-02T08:43:49;13.20;;;4.03;;
74044;SDS011;62389;51.412;5.436;2023-07-02T08:46:16;11.88;;;3.30;;
74044;SDS011;62389;51.412;5.436;2023-07-02T08:48:42;7.50;;;3.42;;
74044;SDS011;62389;51.412;5.436;2023-07-02T08:51:08;8.80;;;3.65;;
74044;SDS011;62389;51.412;5.436;2023-07-02T08:53:34;8.27;;;3.17;;
74044;SDS011;62389;51.412;5.436;2023-07-02T08:56:00;9.38;;;3.60;;
74044;SDS011;62389;51.412;5.436;2023-07-02T08:58:26;8.38;;;3.75;;
74044;SDS011;62389;51.412;5.436;2023-07-02T09:01:07;7.80;;;3.33;;
74044;SDS011;62389;51.412;5.436;2023-07-02T09:03:38;8.63;;;3.38;;
74044;SDS011;62389;51.412;5.436;2023-07-02T09:08:34;11.88;;;3.85;;
74044;SDS011;62389;51.412;5.436;2023-07-02T09:11:07;8.57;;;3.47;;
74044;SDS011;62389;51.412;5.436;2023-07-02T09:13:47;10.73;;;3.40;;
74044;SDS011;62389;51.412;5.436;2023-07-02T09:16:47;9.70;;;3.13;;
74044;SDS011;62389;51.412;5.436;2023-07-02T09:19:07;7.40;;;3.15;;
74044;SDS011;62389;51.412;5.436;2023-07-02T09:26:46;9.77;;;3.40;;
74044;SDS011;62389;51.412;5.436;2023-07-02T09:29:16;7.43;;;3.13;;
74044;SDS011;62389;51.412;5.436;2023-07-02T09:32:03;9.02;;;3.00;;
74044;SDS011;62389;51.412;5.436;2023-07-02T09:34:33;10.27;;;3.58;;
74044;SDS011;62389;51.412;5.436;2023-07-02T09:37:00;10.68;;;3.33;;
74044;SDS011;62389;51.412;5.436;2023-07-02T09:39:27;8.57;;;3.13;;
74044;SDS011;62389;51.412;5.436;2023-07-02T09:41:58;9.82;;;3.55;;
74044;SDS011;62389;51.412;5.436;2023-07-02T09:44:28;9.13;;;3.40;;
74044;SDS011;62389;51.412;5.436;2023-07-02T09:47:02;9.60;;;3.10;;
74044;SDS011;62389;51.412;5.436;2023-07-02T09:49:31;9.60;;;3.38;;
74044;SDS011;62389;51.412;5.436;2023-07-02T09:51:59;8.13;;;3.05;;
74044;SDS011;62389;51.412;5.436;2023-07-02T09:54:28;9.60;;;3.15;;
74044;SDS011;62389;51.412;5.436;2023-07-02T09:59:20;8.35;;;3.33;;
74044;SDS011;62389;51.412;5.436;2023-07-02T10:01:46;11.77;;;3.70;;
74044;SDS011;62389;51.412;5.436;2023-07-02T10:04:15;8.40;;;3.20;;
74044;SDS011;62389;51.412;5.436;2023-07-02T10:06:50;12.43;;;3.30;;
74044;SDS011;62389;51.412;5.436;2023-07-02T10:09:16;10.18;;;3.13;;
74044;SDS011;62389;51.412;5.436;2023-07-02T10:11:43;9.35;;;3.53;;
74044;SDS011;62389;51.412;5.436;2023-07-02T10:14:09;11.80;;;3.28;;
74044;SDS011;62389;51.412;5.436;2023-07-02T10:16:34;10.32;;;3.65;;
74044;SDS011;62389;51.412;5.436;2023-07-02T10:19:12;9.65;;;2.85;;
74044;SDS011;62389;51.412;5.436;2023-07-02T10:21:38;9.55;;;3.63;;
74044;SDS011;62389;51.412;5.436;2023-07-02T10:24:13;12.32;;;4.38;;
74044;SDS011;62389;51.412;5.436;2023-07-02T10:26:50;12.45;;;3.72;;
74044;SDS011;62389;51.412;5.436;2023-07-02T10:29:20;8.30;;;3.50;;
74044;SDS011;62389;51.412;5.436;2023-07-02T10:31:49;10.05;;;3.60;;
74044;SDS011;62389;51.412;5.436;2023-07-02T10:34:16;8.98;;;3.45;;
74044;SDS011;62389;51.412;5.436;2023-07-02T10:36:41;12.90;;;3.78;;
74044;SDS011;62389;51.412;5.436;2023-07-02T10:39:07;8.35;;;3.30;;
74044;SDS011;62389;51.412;5.436;2023-07-02T10:41:33;10.55;;;3.83;;
74044;SDS011;62389;51.412;5.436;2023-07-02T10:44:07;12.52;;;3.90;;
74044;SDS011;62389;51.412;5.436;2023-07-02T10:46:34;7.43;;;3.38;;
74044;SDS011;62389;51.412;5.436;2023-07-02T10:48:59;11.23;;;3.65;;
74044;SDS011;62389;51.412;5.436;2023-07-02T10:51:25;13.07;;;4.07;;
74044;SDS011;62389;51.412;5.436;2023-07-02T10:54:00;12.63;;;3.90;;
74044;SDS011;62389;51.412;5.436;2023-07-02T10:56:28;10.45;;;3.33;;
74044;SDS011;62389;51.412;5.436;2023-07-02T10:58:54;9.43;;;3.67;;
74044;SDS011;62389;51.412;5.436;2023-07-02T11:01:29;12.65;;;4.78;;
74044;SDS011;62389;51.412;5.436;2023-07-02T11:03:56;10.05;;;3.90;;
74044;SDS011;62389;51.412;5.436;2023-07-02T11:06:29;12.13;;;4.63;;
74044;SDS011;62389;51.412;5.436;2023-07-02T11:08:57;11.00;;;3.90;;
74044;SDS011;62389;51.412;5.436;2023-07-02T11:11:23;10.73;;;4.32;;
74044;SDS011;62389;51.412;5.436;2023-07-02T11:13:49;11.55;;;4.40;;
74044;SDS011;62389;51.412;5.436;2023-07-02T11:18:50;13.18;;;4.95;;
74044;SDS011;62389;51.412;5.436;2023-07-02T11:21:17;12.25;;;3.70;;
74044;SDS011;62389;51.412;5.436;2023-07-02T11:23:42;10.75;;;4.43;;
74044;SDS011;62389;51.412;5.436;2023-07-02T11:26:08;10.77;;;4.65;;
74044;SDS011;62389;51.412;5.436;2023-07-02T11:28:33;11.93;;;4.35;;
74044;SDS011;62389;51.412;5.436;2023-07-02T11:31:01;14.63;;;5.65;;
74044;SDS011;62389;51.412;5.436;2023-07-02T11:33:37;12.60;;;5.88;;
74044;SDS011;62389;51.412;5.436;2023-07-02T11:36:08;10.43;;;4.82;;
74044;SDS011;62389;51.412;5.436;2023-07-02T11:38:45;11.52;;;5.25;;
74044;SDS011;62389;51.412;5.436;2023-07-02T11:41:10;11.60;;;5.35;;
74044;SDS011;62389;51.412;5.436;2023-07-02T11:43:36;13.48;;;5.80;;
74044;SDS011;62389;51.412;5.436;2023-07-02T11:46:02;12.95;;;5.90;;
74044;SDS011;62389;51.412;5.436;2023-07-02T11:48:28;15.00;;;5.45;;
74044;SDS011;62389;51.412;5.436;2023-07-02T11:50:53;11.32;;;5.18;;
74044;SDS011;62389;51.412;5.436;2023-07-02T11:53:18;11.65;;;4.47;;
74044;SDS011;62389;51.412;5.436;2023-07-02T11:55:44;12.30;;;5.22;;
74044;SDS011;62389;51.412;5.436;2023-07-02T11:58:09;11.57;;;5.00;;
74044;SDS011;62389;51.412;5.436;2023-07-02T12:00:34;11.65;;;4.45;;
74044;SDS011;62389;51.412;5.436;2023-07-02T12:03:00;12.68;;;5.20;;
74044;SDS011;62389;51.412;5.436;2023-07-02T12:05:25;11.35;;;5.50;;
74044;SDS011;62389;51.412;5.436;2023-07-02T12:07:51;14.82;;;5.10;;
74044;SDS011;62389;51.412;5.436;2023-07-02T12:10:17;11.23;;;4.85;;
74044;SDS011;62389;51.412;5.436;2023-07-02T12:12:42;9.70;;;3.63;;
74044;SDS011;62389;51.412;5.436;2023-07-02T12:15:08;11.13;;;4.80;;
74044;SDS011;62389;51.412;5.436;2023-07-02T12:17:33;13.35;;;4.78;;
74044;SDS011;62389;51.412;5.436;2023-07-02T12:19:59;18.42;;;4.65;;
74044;SDS011;62389;51.412;5.436;2023-07-02T12:22:24;13.90;;;4.43;;
74044;SDS011;62389;51.412;5.436;2023-07-02T12:24:49;9.25;;;3.72;;
74044;SDS011;62389;51.412;5.436;2023-07-02T12:27:15;11.07;;;4.55;;
74044;SDS011;62389;51.412;5.436;2023-07-02T12:29:40;9.25;;;3.90;;
74044;SDS011;62389;51.412;5.436;2023-07-02T12:32:06;11.70;;;4.75;;
74044;SDS011;62389;51.412;5.436;2023-07-02T12:34:32;10.98;;;3.60;;
74044;SDS011;62389;51.412;5.436;2023-07-02T12:36:57;9.60;;;4.18;;
74044;SDS011;62389;51.412;5.436;2023-07-02T12:39:22;10.98;;;4.47;;
74044;SDS011;62389;51.412;5.436;2023-07-02T12:41:48;9.38;;;3.80;;
74044;SDS011;62389;51.412;5.436;2023-07-02T12:44:13;11.80;;;3.80;;
74044;SDS011;62389;51.412;5.436;2023-07-02T12:46:39;9.25;;;3.97;;
74044;SDS011;62389;51.412;5.436;2023-07-02T12:49:04;11.68;;;3.88;;
74044;SDS011;62389;51.412;5.436;2023-07-02T12:51:29;7.45;;;3.55;;
74044;SDS011;62389;51.412;5.436;2023-07-02T12:53:55;6.25;;;2.78;;
74044;SDS011;62389;51.412;5.436;2023-07-02T12:56:20;10.55;;;3.42;;
74044;SDS011;62389;51.412;5.436;2023-07-02T12:58:46;8.73;;;3.58;;
74044;SDS011;62389;51.412;5.436;2023-07-02T13:01:11;10.32;;;3.13;;
74044;SDS011;62389;51.412;5.436;2023-07-02T13:03:37;9.70;;;3.60;;
74044;SDS011;62389;51.412;5.436;2023-07-02T13:06:02;7.97;;;3.50;;
74044;SDS011;62389;51.412;5.436;2023-07-02T13:08:28;7.80;;;3.42;;
74044;SDS011;62389;51.412;5.436;2023-07-02T13:10:53;9.80;;;3.40;;
74044;SDS011;62389;51.412;5.436;2023-07-02T13:13:19;8.30;;;3.42;;
74044;SDS011;62389;51.412;5.436;2023-07-02T13:15:44;7.65;;;3.22;;
74044;SDS011;62389;51.412;5.436;2023-07-02T13:18:09;7.38;;;3.30;;
74044;SDS011;62389;51.412;5.436;2023-07-02T13:20:35;9.20;;;3.25;;
74044;SDS011;62389;51.412;5.436;2023-07-02T13:23:00;9.75;;;3.45;;
74044;SDS011;62389;51.412;5.436;2023-07-02T13:25:28;8.50;;;3.40;;
74044;SDS011;62389;51.412;5.436;2023-07-02T13:27:53;9.02;;;3.22;;
74044;SDS011;62389;51.412;5.436;2023-07-02T13:30:18;10.77;;;3.97;;
74044;SDS011;62389;51.412;5.436;2023-07-02T13:32:44;7.95;;;3.60;;
74044;SDS011;62389;51.412;5.436;2023-07-02T13:35:09;9.48;;;4.05;;
74044;SDS011;62389;51.412;5.436;2023-07-02T13:37:35;9.73;;;3.75;;
74044;SDS011;62389;51.412;5.436;2023-07-02T13:40:00;7.63;;;3.67;;
74044;SDS011;62389;51.412;5.436;2023-07-02T13:42:25;10.52;;;3.08;;
74044;SDS011;62389;51.412;5.436;2023-07-02T13:44:51;7.18;;;3.20;;
74044;SDS011;62389;51.412;5.436;2023-07-02T13:47:16;9.65;;;3.67;;
74044;SDS011;62389;51.412;5.436;2023-07-02T13:49:41;9.85;;;3.53;;
74044;SDS011;62389;51.412;5.436;2023-07-02T13:52:07;9.73;;;3.70;;
74044;SDS011;62389;51.412;5.436;2023-07-02T13:54:32;6.25;;;3.30;;
74044;SDS011;62389;51.412;5.436;2023-07-02T13:56:58;9.05;;;3.97;;
74044;SDS011;62389;51.412;5.436;2023-07-02T13:59:23;9.55;;;3.92;;
74044;SDS011;62389;51.412;5.436;2023-07-02T14:01:49;9.50;;;3.88;;
74044;SDS011;62389;51.412;5.436;2023-07-02T14:04:15;7.82;;;3.17;;
74044;SDS011;62389;51.412;5.436;2023-07-02T14:09:07;8.10;;;3.55;;
74044;SDS011;62389;51.412;5.436;2023-07-02T14:11:34;13.85;;;4.50;;
74044;SDS011;62389;51.412;5.436;2023-07-02T14:14:00;9.90;;;4.70;;
74044;SDS011;62389;51.412;5.436;2023-07-02T14:16:25;9.27;;;3.78;;
74044;SDS011;62389;51.412;5.436;2023-07-02T14:18:51;9.80;;;3.58;;
74044;SDS011;62389;51.412;5.436;2023-07-02T14:21:17;7.18;;;3.38;;
74044;SDS011;62389;51.412;5.436;2023-07-02T14:23:43;13.45;;;3.88;;
74044;SDS011;62389;51.412;5.436;2023-07-02T14:26:09;7.70;;;3.80;;
74044;SDS011;62389;51.412;5.436;2023-07-02T14:28:34;8.00;;;3.28;;
74044;SDS011;62389;51.412;5.436;2023-07-02T14:31:00;7.53;;;3.35;;
74044;SDS011;62389;51.412;5.436;2023-07-02T14:33:28;11.15;;;3.35;;
74044;SDS011;62389;51.412;5.436;2023-07-02T14:35:55;10.68;;;3.17;;
74044;SDS011;62389;51.412;5.436;2023-07-02T14:38:20;9.18;;;3.42;;
74044;SDS011;62389;51.412;5.436;2023-07-02T14:40:47;10.35;;;3.15;;
74044;SDS011;62389;51.412;5.436;2023-07-02T14:43:13;7.72;;;3.28;;
74044;SDS011;62389;51.412;5.436;2023-07-02T14:45:46;8.82;;;3.35;;
74044;SDS011;62389;51.412;5.436;2023-07-02T14:48:13;14.48;;;3.60;;
74044;SDS011;62389;51.412;5.436;2023-07-02T14:50:43;11.55;;;3.60;;
74044;SDS011;62389;51.412;5.436;2023-07-02T14:53:10;9.88;;;3.72;;
74044;SDS011;62389;51.412;5.436;2023-07-02T14:55:35;8.20;;;3.40;;